Time;durP1;ratioP1;P1;durP2;ratioP2;P2;SDS_P1;SDS_P2;PMS_P1;PMS_P2;Temp;Humidity;BMP_temperature;BMP_pressure;BME280_temperature;BME280_humidity;BME280_pressure;Samples;Min_cycle;Max_cycle;Signal;HPM_P1;HPM_P2
2021/05/16 00:00:11;;;;;;;6.03;4.03;;;;;;;14.41;70.11;99153.13;4882787;28;100672;-81
2021/05/16 00:02:38;;;;;;;8.50;4.75;;;;;;;14.43;69.58;99156.50;4896285;28;97545;-82
2021/05/16 00:05:04;;;;;;;9.63;5.97;;;;;;;14.25;70.16;99159.47;4882350;28;97473;-81
2021/05/16 00:07:30;;;;;;;5.93;3.70;;;;;;;14.33;69.37;99151.00;4898346;28;97363;-81
2021/05/16 00:09:56;;;;;;;7.13;3.45;;;;;;;14.24;70.72;99141.91;4898246;28;98121;-83
2021/05/16 00:12:23;;;;;;;7.13;3.25;;;;;;;14.34;69.73;99128.09;4883033;28;100204;-82
2021/05/16 00:14:49;;;;;;;6.40;3.67;;;;;;;14.34;70.06;99121.03;4881787;28;97246;-80
2021/05/16 00:17:15;;;;;;;6.53;3.13;;;;;;;14.31;70.55;99121.25;4898728;28;96801;-81
2021/05/16 00:19:42;;;;;;;6.07;3.78;;;;;;;14.33;69.92;99114.03;4896896;28;97590;-81
2021/05/16 00:22:07;;;;;;;6.85;3.42;;;;;;;14.33;70.02;99114.03;4898281;28;101578;-81
2021/05/16 00:24:33;;;;;;;6.43;3.30;;;;;;;14.43;69.45;99117.75;4898374;28;96700;-78
2021/05/16 00:26:59;;;;;;;6.28;2.80;;;;;;;14.48;68.99;99122.69;4897918;28;96892;-81
2021/05/16 00:29:24;;;;;;;4.03;2.70;;;;;;;14.54;69.02;99122.31;4898238;28;101240;-81
2021/05/16 00:31:50;;;;;;;5.63;3.00;;;;;;;14.53;69.43;99122.44;4897734;28;97890;-81
2021/05/16 00:34:15;;;;;;;6.30;3.28;;;;;;;14.35;69.99;99106.03;4898578;28;96695;-81
2021/05/16 00:36:44;;;;;;;6.05;3.10;;;;;;;14.37;69.46;99112.03;4897974;28;96839;-81
2021/05/16 00:39:09;;;;;;;8.50;2.50;;;;;;;14.22;70.08;99088.41;4882152;28;101717;-81
2021/05/16 00:41:35;;;;;;;4.57;2.70;;;;;;;14.30;69.92;99076.47;4897606;28;101578;-78
2021/05/16 00:44:01;;;;;;;3.65;2.75;;;;;;;14.24;70.61;99085.66;4882119;28;97764;-81
2021/05/16 00:46:26;;;;;;;5.82;2.80;;;;;;;14.22;70.51;99091.03;4917965;28;96970;-81
2021/05/16 00:48:52;;;;;;;6.50;3.05;;;;;;;14.41;69.19;99087.97;4917055;28;97413;-81
2021/05/16 00:51:18;;;;;;;11.95;3.05;;;;;;;14.43;69.31;99080.78;4885662;28;99260;-82
2021/05/16 00:53:44;;;;;;;4.75;3.20;;;;;;;14.15;70.49;99073.91;4900082;28;97291;-81
2021/05/16 00:56:10;;;;;;;4.20;2.67;;;;;;;14.09;70.70;99076.16;4917463;28;97142;-81
2021/05/16 00:58:35;;;;;;;6.70;2.90;;;;;;;14.09;70.73;99076.16;4917201;28;97917;-78
2021/05/16 01:01:03;;;;;;;6.32;3.13;;;;;;;14.11;70.11;99068.94;4900810;28;101220;-81
2021/05/16 01:03:32;;;;;;;6.43;3.20;;;;;;;14.02;71.24;99073.94;4901353;28;97099;-81
2021/05/16 01:05:58;;;;;;;4.53;3.05;;;;;;;13.96;70.95;99066.44;4900671;28;97706;-81
2021/05/16 01:08:29;;;;;;;3.55;2.50;;;;;;;14.08;71.17;99063.88;4901598;28;100403;-81
2021/05/16 01:10:55;;;;;;;4.75;2.75;;;;;;;14.05;71.13;99064.97;4884537;28;101620;-81
2021/05/16 01:13:21;;;;;;;6.07;2.90;;;;;;;14.22;70.64;99075.22;4901315;28;96585;-81
2021/05/16 01:15:48;;;;;;;7.05;3.90;;;;;;;14.32;70.31;99069.28;4916672;28;96823;-81
2021/05/16 01:18:15;;;;;;;6.18;2.90;;;;;;;14.18;71.32;99064.94;4917162;28;98060;-81
2021/05/16 01:20:47;;;;;;;3.90;3.00;;;;;;;14.29;70.69;99070.34;4900188;28;100165;-81
2021/05/16 01:23:35;;;;;;;4.90;2.80;;;;;;;14.10;71.39;99068.09;4901489;28;97241;-81
2021/05/16 01:26:07;;;;;;;4.82;2.72;;;;;;;14.36;69.61;99068.13;4888794;28;96706;-80
2021/05/16 01:28:33;;;;;;;4.78;2.90;;;;;;;14.29;69.85;99067.69;4885382;28;100962;-80
2021/05/16 01:30:59;;;;;;;4.82;2.90;;;;;;;14.18;70.32;99071.06;4916198;28;98386;-80
2021/05/16 01:33:25;;;;;;;4.95;2.88;;;;;;;14.20;70.56;99066.53;4900939;28;96577;-80
2021/05/16 01:35:52;;;;;;;5.95;2.95;;;;;;;13.93;71.12;99057.84;4900897;28;97144;-80
2021/05/16 01:38:19;;;;;;;4.53;2.40;;;;;;;13.86;71.92;99046.88;4917158;28;98071;-80
2021/05/16 01:40:45;;;;;;;5.78;2.80;;;;;;;14.03;70.95;99051.84;4900043;28;101085;-80
2021/05/16 01:43:23;;;;;;;5.13;2.63;;;;;;;13.86;71.42;99053.97;4902417;28;96759;-80
2021/05/16 01:45:49;;;;;;;3.60;2.42;;;;;;;13.84;70.95;99048.78;4887394;28;96929;-80
2021/05/16 01:48:15;;;;;;;7.50;2.38;;;;;;;13.61;72.27;99047.69;4918820;28;96892;-80
2021/05/16 01:50:41;;;;;;;4.47;2.60;;;;;;;13.70;72.49;99041.81;4884761;28;100820;-78
2021/05/16 01:53:08;;;;;;;5.25;2.88;;;;;;;13.65;72.18;99043.06;4900815;28;96602;-80
2021/05/16 01:55:34;;;;;;;6.25;2.95;;;;;;;13.95;71.14;99053.34;4916465;28;97027;-80
2021/05/16 01:58:00;;;;;;;7.18;3.28;;;;;;;13.90;71.44;99053.63;4915552;28;97643;-80
2021/05/16 02:00:26;;;;;;;5.75;3.22;;;;;;;13.80;71.40;99058.69;4901809;28;98366;-80
2021/05/16 02:02:53;;;;;;;4.55;2.85;;;;;;;13.67;71.99;99057.84;4916380;28;97226;-80
2021/05/16 02:05:24;;;;;;;4.45;2.65;;;;;;;13.61;71.61;99052.09;4887537;28;96927;-80
2021/05/16 02:07:50;;;;;;;4.95;3.13;;;;;;;13.58;72.12;99047.88;4901157;28;99208;-80
2021/05/16 02:10:19;;;;;;;5.20;2.40;;;;;;;13.57;71.78;99052.31;4901946;28;97898;-80
2021/05/16 02:12:46;;;;;;;6.28;2.88;;;;;;;13.48;72.28;99034.47;4885822;28;96691;-79
2021/05/16 02:15:13;;;;;;;5.15;2.67;;;;;;;13.34;72.75;99035.38;4901849;28;96896;-80
2021/05/16 02:17:40;;;;;;;4.88;2.67;;;;;;;13.41;72.81;99034.97;4885481;28;101344;-80
2021/05/16 02:20:08;;;;;;;4.00;2.50;;;;;;;13.57;71.79;99043.56;4900694;28;101760;-80
2021/05/16 02:22:36;;;;;;;4.85;2.58;;;;;;;13.51;71.75;99046.59;4916779;28;97217;-80
2021/05/16 02:25:03;;;;;;;4.55;3.33;;;;;;;13.59;71.90;99047.78;4900211;28;97046;-80
2021/05/16 02:27:30;;;;;;;4.47;2.45;;;;;;;13.52;71.84;99043.03;4901214;28;101533;-80
2021/05/16 02:29:55;;;;;;;5.78;2.95;;;;;;;13.30;72.38;99051.50;4900630;28;98412;-80
2021/05/16 02:32:22;;;;;;;4.70;2.92;;;;;;;13.25;73.32;99040.38;4934782;28;96594;-80
2021/05/16 02:34:51;;;;;;;5.30;2.58;;;;;;;13.20;73.05;99040.66;4900444;28;96851;-80
2021/05/16 02:37:26;;;;;;;7.57;2.85;;;;;;;13.19;73.27;99040.78;4888248;28;100524;-79
2021/05/16 02:39:53;;;;;;;3.25;2.65;;;;;;;13.26;73.15;99036.81;4885638;28;101374;-79
2021/05/16 02:42:20;;;;;;;5.82;2.50;;;;;;;13.29;73.14;99045.41;4901192;28;97173;-80
2021/05/16 02:44:46;;;;;;;6.38;2.80;;;;;;;13.24;73.33;99036.06;4916311;28;97168;-77
2021/05/16 02:47:11;;;;;;;5.63;2.70;;;;;;;13.24;73.05;99031.63;4900816;28;98970;-80
2021/05/16 02:49:37;;;;;;;4.22;2.88;;;;;;;13.26;73.48;99034.19;4901487;28;98063;-80
2021/05/16 02:52:03;;;;;;;4.47;3.00;;;;;;;13.44;72.02;99037.41;4916231;28;96655;-80
2021/05/16 02:54:29;;;;;;;5.03;2.95;;;;;;;13.45;72.22;99041.75;4884424;28;96766;-80
2021/05/16 02:56:54;;;;;;;4.68;2.97;;;;;;;13.41;72.48;99048.16;4900530;28;101545;-80
2021/05/16 02:59:25;;;;;;;6.35;3.30;;;;;;;13.47;72.35;99040.69;4902381;28;97884;-80
2021/05/16 03:01:51;;;;;;;6.25;2.90;;;;;;;13.43;72.68;99041.00;4915696;28;96619;-79
2021/05/16 03:04:19;;;;;;;7.07;3.45;;;;;;;13.53;71.96;99040.28;4901344;28;96729;-80
2021/05/16 03:06:45;;;;;;;7.22;3.22;;;;;;;13.42;72.15;99049.84;4885648;28;101566;-77
2021/05/16 03:09:11;;;;;;;5.63;2.92;;;;;;;13.42;71.79;99050.69;4899805;28;97918;-80
2021/05/16 03:11:37;;;;;;;6.80;3.10;;;;;;;13.32;71.80;99034.66;4900885;28;97385;-80
2021/05/16 03:14:03;;;;;;;4.95;2.80;;;;;;;13.20;72.29;99045.94;4900642;28;97072;-80
2021/05/16 03:16:32;;;;;;;8.18;3.42;;;;;;;13.12;72.27;99029.81;4902614;28;99850;-80
2021/05/16 03:18:57;;;;;;;6.70;3.05;;;;;;;13.17;72.28;99034.75;4885381;28;101223;-80
2021/05/16 03:21:24;;;;;;;6.97;2.80;;;;;;;13.02;72.30;99034.81;4902897;28;97012;-80
2021/05/16 03:23:54;;;;;;;5.28;3.15;;;;;;;13.21;72.34;99046.81;4917654;28;96867;-79
2021/05/16 03:26:21;;;;;;;8.35;3.45;;;;;;;12.98;72.41;99035.97;4903308;28;100397;-80
2021/05/16 03:28:46;;;;;;;8.40;3.10;;;;;;;12.91;72.77;99045.19;4901784;28;101249;-79
2021/05/16 03:31:12;;;;;;;7.20;3.30;;;;;;;12.94;73.05;99036.25;4900747;28;96717;-79
2021/05/16 03:33:37;;;;;;;7.32;2.90;;;;;;;13.03;72.84;99044.41;4885359;28;96860;-80
2021/05/16 03:36:03;;;;;;;8.25;3.42;;;;;;;13.13;72.14;99040.22;4915905;28;97125;-80
2021/05/16 03:38:29;;;;;;;4.72;2.83;;;;;;;13.18;71.72;99029.41;4900595;28;98007;-80
2021/05/16 03:40:54;;;;;;;5.90;2.80;;;;;;;13.20;71.67;99029.28;4915472;28;96615;-79
2021/05/16 03:43:22;;;;;;;5.78;2.60;;;;;;;13.42;71.38;99034.88;4900677;28;96757;-80
2021/05/16 03:45:48;;;;;;;7.28;2.97;;;;;;;13.33;71.01;99043.41;4901117;28;101718;-79
2021/05/16 03:48:13;;;;;;;7.22;2.30;;;;;;;13.42;71.27;99039.31;4899569;28;101620;-80
2021/05/16 03:50:39;;;;;;;6.85;2.83;;;;;;;13.35;71.13;99041.47;4900237;28;97019;-80
2021/05/16 03:53:06;;;;;;;2.65;1.95;;;;;;;13.35;71.08;99044.13;4900077;28;97055;-79
2021/05/16 03:55:31;;;;;;;5.38;2.20;;;;;;;13.36;71.42;99053.75;4900634;28;100023;-80
2021/05/16 03:57:57;;;;;;;3.88;2.42;;;;;;;13.26;71.18;99052.63;4915286;28;96943;-79
2021/05/16 04:00:23;;;;;;;3.00;2.10;;;;;;;13.26;71.82;99050.00;4899303;28;97152;-80
2021/05/16 04:02:48;;;;;;;7.70;2.95;;;;;;;13.39;71.17;99053.53;4915736;28;97062;-80
2021/05/16 04:05:14;;;;;;;3.85;2.47;;;;;;;13.31;70.93;99047.91;4882893;28;100493;-80
2021/05/16 04:07:40;;;;;;;3.65;2.13;;;;;;;13.47;70.72;99051.25;4899104;28;101072;-79
2021/05/16 04:10:07;;;;;;;9.32;2.92;;;;;;;13.44;70.12;99053.22;4898944;28;97150;-80
2021/05/16 04:12:33;;;;;;;3.88;2.15;;;;;;;13.39;70.83;99050.91;4901705;28;97020;-79
2021/05/16 04:14:58;;;;;;;6.13;2.17;;;;;;;13.56;70.05;99048.00;4919108;28;98084;-78
2021/05/16 04:17:24;;;;;;;4.28;2.08;;;;;;;13.77;69.23;99050.97;4899604;28;101368;-79
2021/05/16 04:19:49;;;;;;;3.35;2.40;;;;;;;13.71;69.57;99043.50;4898290;28;97330;-79
2021/05/16 04:22:15;;;;;;;4.35;2.75;;;;;;;13.71;69.60;99042.66;4898840;28;96892;-79
2021/05/16 04:24:41;;;;;;;5.55;2.70;;;;;;;13.82;69.78;99045.41;4898403;28;99238;-80
2021/05/16 04:27:06;;;;;;;4.35;2.42;;;;;;;13.89;69.41;99045.84;4897974;28;98267;-80
2021/05/16 04:29:32;;;;;;;4.68;2.13;;;;;;;14.05;68.92;99038.56;4914544;28;96628;-80
2021/05/16 04:31:58;;;;;;;3.63;2.35;;;;;;;14.19;68.10;99042.88;4897591;28;96927;-80
2021/05/16 04:34:23;;;;;;;4.25;2.05;;;;;;;14.18;68.27;99042.03;4898914;28;97347;-80
2021/05/16 04:36:49;;;;;;;3.53;2.10;;;;;;;14.17;68.32;99044.81;4898178;28;101554;-80
2021/05/16 04:39:14;;;;;;;5.28;2.10;;;;;;;14.21;67.34;99039.19;4897488;28;96724;-80
2021/05/16 04:41:40;;;;;;;2.63;1.83;;;;;;;14.25;67.87;99045.09;4914997;28;96785;-80
2021/05/16 04:44:06;;;;;;;6.00;2.05;;;;;;;14.25;67.91;99040.69;4897296;28;101115;-80
2021/05/16 04:46:32;;;;;;;3.75;2.00;;;;;;;14.57;67.29;99047.31;4898032;28;101024;-80
2021/05/16 04:48:57;;;;;;;4.45;1.80;;;;;;;14.50;67.49;99049.50;4897167;28;97268;-78
2021/05/16 04:51:23;;;;;;;2.65;1.70;;;;;;;14.63;67.32;99036.31;4898014;28;97109;-82
2021/05/16 04:53:49;;;;;;;5.40;1.73;;;;;;;14.68;67.00;99042.97;4897862;28;101397;-81
2021/05/16 04:56:15;;;;;;;4.70;1.58;;;;;;;14.65;67.22;99042.34;4881463;28;101108;-81
2021/05/16 04:58:41;;;;;;;3.10;1.80;;;;;;;14.72;67.48;99033.03;4881634;28;97030;-81
2021/05/16 05:01:07;;;;;;;2.88;1.60;;;;;;;14.85;67.00;99041.75;4897312;28;96897;-81
2021/05/16 05:03:32;;;;;;;3.25;2.00;;;;;;;14.80;66.26;99043.88;4913126;28;98048;-81
2021/05/16 05:05:58;;;;;;;4.38;1.52;;;;;;;14.87;66.51;99042.50;4897696;28;101721;-77
2021/05/16 05:08:27;;;;;;;3.47;1.63;;;;;;;14.92;66.00;99050.06;4882211;28;97228;-80
2021/05/16 05:10:53;;;;;;;5.60;1.73;;;;;;;15.00;65.88;99052.19;4898277;28;97037;-81
2021/05/16 05:13:19;;;;;;;3.70;1.75;;;;;;;15.15;65.37;99051.06;4896443;28;101513;-80
2021/05/16 05:15:45;;;;;;;1.98;1.52;;;;;;;15.16;64.91;99060.69;4897735;28;100888;-81
2021/05/16 05:18:11;;;;;;;1.98;1.40;;;;;;;15.24;64.58;99055.69;4897347;28;97018;-81
2021/05/16 05:20:36;;;;;;;2.38;1.38;;;;;;;15.31;64.13;99058.72;4897669;28;96911;-80
2021/05/16 05:23:02;;;;;;;2.45;1.70;;;;;;;15.43;63.79;99056.97;4897141;28;97940;-80
2021/05/16 05:25:28;;;;;;;1.35;1.00;;;;;;;15.58;63.34;99054.03;4914088;28;97108;-80
2021/05/16 05:27:55;;;;;;;2.78;1.80;;;;;;;15.72;62.43;99053.03;4881676;28;96852;-80
2021/05/16 05:30:24;;;;;;;2.00;1.50;;;;;;;16.10;61.85;99062.50;4897116;28;97114;-80
2021/05/16 05:32:50;;;;;;;2.95;1.60;;;;;;;16.29;60.92;99061.94;4884514;28;101220;-80
2021/05/16 05:35:16;;;;;;;15.45;2.13;;;;;;;16.58;60.39;99064.09;4899775;28;101249;-80
2021/05/16 05:37:42;;;;;;;3.17;1.63;;;;;;;16.74;59.99;99067.22;4900580;28;96651;-80
2021/05/16 05:40:08;;;;;;;2.58;1.63;;;;;;;17.01;59.36;99064.19;4933674;28;96794;-80
2021/05/16 05:42:33;;;;;;;1.55;1.20;;;;;;;17.46;57.62;99063.25;4916990;28;98478;-80
2021/05/16 05:44:59;;;;;;;2.03;1.20;;;;;;;17.87;56.69;99070.44;4916270;28;98282;-77
2021/05/16 05:47:25;;;;;;;1.38;1.17;;;;;;;18.25;55.76;99066.34;4916614;28;96643;-80
2021/05/16 05:49:53;;;;;;;2.78;1.65;;;;;;;18.65;55.27;99069.06;4916526;28;96824;-80
2021/05/16 05:52:19;;;;;;;1.42;1.30;;;;;;;19.14;53.63;99064.78;4915714;28;98173;-80
2021/05/16 05:54:44;;;;;;;2.28;1.40;;;;;;;19.81;52.32;99068.50;4900751;28;97869;-79
2021/05/16 05:57:10;;;;;;;1.80;1.13;;;;;;;20.58;50.71;99071.97;4899589;28;97147;-79
2021/05/16 05:59:35;;;;;;;2.05;1.35;;;;;;;20.96;50.33;99073.63;4916728;28;96906;-80
2021/05/16 06:02:02;;;;;;;8.35;7.85;;;;;;;21.44;48.90;99071.69;4898846;28;101411;-80
2021/05/16 06:04:29;;;;;;;6.20;5.80;;;;;;;21.98;48.06;99066.28;4884498;28;101648;-80
2021/05/16 06:06:55;;;;;;;7.57;7.10;;;;;;;22.36;47.10;99068.59;4900176;28;97231;-81
2021/05/16 06:09:20;;;;;;;2.17;1.20;;;;;;;22.47;46.90;99083.53;4899592;28;97228;-81
2021/05/16 06:11:46;;;;;;;8.27;7.82;;;;;;;22.73;45.84;99075.47;4899830;28;100495;-81
2021/05/16 06:14:11;;;;;;;6.60;6.10;;;;;;;23.18;44.79;99085.03;4883335;28;101171;-81
2021/05/16 06:16:37;;;;;;;6.15;5.85;;;;;;;23.82;44.39;99085.34;4884368;28;96991;-81
2021/05/16 06:19:03;;;;;;;10.00;9.20;;;;;;;24.00;43.21;99087.88;4884300;28;96956;-80
2021/05/16 06:21:29;;;;;;;7.10;4.40;;;;;;;23.25;45.67;99086.06;4883797;28;101191;-81
2021/05/16 06:24:09;;;;;;;10.07;9.38;;;;;;;22.59;46.08;99089.44;4900294;28;98035;-81
2021/05/16 06:26:41;;;;;;;3.20;1.70;;;;;;;21.77;46.32;99098.69;4885476;28;97657;-81
2021/05/16 06:29:08;;;;;;;3.33;1.42;;;;;;;21.44;47.12;99101.03;4899440;28;97613;-80
2021/05/16 06:31:34;;;;;;;1.80;1.00;;;;;;;20.96;48.03;99104.78;4883588;28;101691;-81
2021/05/16 06:34:00;;;;;;;1.80;1.20;;;;;;;20.66;48.11;99104.09;4900114;28;97733;-80
2021/05/16 06:36:27;;;;;;;2.80;0.90;;;;;;;20.15;49.84;99107.13;4883346;28;97029;-80
2021/05/16 06:38:52;;;;;;;1.65;1.00;;;;;;;19.92;51.80;99107.41;4915678;28;96815;-80
2021/05/16 06:41:18;;;;;;;2.90;1.42;;;;;;;19.64;50.54;99111.75;4898983;28;101891;-80
2021/05/16 06:43:45;;;;;;;3.30;1.02;;;;;;;19.37;50.37;99117.72;4915588;28;98488;-80
2021/05/16 06:46:11;;;;;;;8.63;1.75;;;;;;;19.34;50.87;99107.34;4915487;28;96674;-80
2021/05/16 06:48:37;;;;;;;6.25;1.40;;;;;;;19.19;51.65;99101.59;4881145;28;96886;-80
2021/05/16 06:51:03;;;;;;;4.22;1.10;;;;;;;18.99;52.30;99111.31;4898389;28;101167;-80
2021/05/16 06:53:30;;;;;;;2.55;1.02;;;;;;;18.88;52.03;99111.41;4887245;28;101499;-80
2021/05/16 06:55:56;;;;;;;1.70;1.27;;;;;;;18.64;52.22;99111.72;4883249;28;97101;-80
2021/05/16 06:58:21;;;;;;;2.65;1.48;;;;;;;18.32;53.29;99108.22;4914893;28;97040;-81
2021/05/16 07:00:47;;;;;;;3.70;1.08;;;;;;;18.16;53.82;99110.47;4915462;28;97793;-79
2021/05/16 07:03:13;;;;;;;5.15;1.33;;;;;;;18.12;53.71;99113.50;4898613;28;101326;-78
2021/05/16 07:05:39;;;;;;;1.48;1.20;;;;;;;17.99;53.66;99114.53;4897351;28;96828;-79
2021/05/16 07:08:04;;;;;;;1.38;1.00;;;;;;;17.89;53.96;99116.31;4916592;28;97130;-79
2021/05/16 07:10:30;;;;;;;3.92;1.00;;;;;;;17.70;54.07;99108.97;4896991;28;101319;-78
2021/05/16 07:13:03;;;;;;;2.85;1.40;;;;;;;17.68;54.74;99115.38;4884530;28;103139;-80
2021/05/16 07:15:29;;;;;;;3.13;1.17;;;;;;;17.61;55.28;99109.75;4883750;28;97252;-79
2021/05/16 07:17:55;;;;;;;2.45;1.15;;;;;;;17.42;56.77;99116.56;4895200;28;97278;-79
2021/05/16 07:20:20;;;;;;;2.05;1.50;;;;;;;17.39;56.66;99114.16;4896004;28;97860;-79
2021/05/16 07:22:46;;;;;;;1.92;1.20;;;;;;;17.36;56.39;99117.03;4929690;28;97807;-79
2021/05/16 07:25:13;;;;;;;1.92;0.88;;;;;;;17.42;55.91;99116.56;4896263;28;97109;-78
2021/05/16 07:27:39;;;;;;;2.45;0.98;;;;;;;17.24;55.80;99125.16;4895453;28;97242;-79
2021/05/16 07:30:06;;;;;;;1.38;0.77;;;;;;;17.13;56.21;99123.34;4896279;28;101669;-79
2021/05/16 07:32:32;;;;;;;5.18;1.10;;;;;;;17.11;56.41;99125.31;4912192;28;99236;-80
2021/05/16 07:34:58;;;;;;;4.53;1.15;;;;;;;17.05;55.86;99123.97;4929635;28;97063;-80
2021/05/16 07:37:24;;;;;;;2.17;0.90;;;;;;;16.96;56.46;99132.66;4893166;28;97105;-80
2021/05/16 07:39:49;;;;;;;1.63;1.00;;;;;;;16.96;56.23;99133.50;4910011;28;97924;-79
2021/05/16 07:42:15;;;;;;;1.92;1.25;;;;;;;16.96;56.88;99138.81;4860511;28;99381;-79
2021/05/16 07:44:41;;;;;;;2.33;1.00;;;;;;;16.88;56.39;99137.72;4876683;28;97520;-79
2021/05/16 07:47:10;;;;;;;1.95;1.08;;;;;;;16.83;56.73;99134.59;4876490;28;97389;-79
2021/05/16 07:49:36;;;;;;;3.33;0.80;;;;;;;16.73;57.76;99137.94;4877122;28;101595;-79
2021/05/16 07:52:03;;;;;;;4.25;1.00;;;;;;;16.64;58.26;99140.44;4893256;28;98052;-79
2021/05/16 07:54:28;;;;;;;4.40;2.22;;;;;;;16.61;57.91;99140.69;4867911;28;97346;-80
2021/05/16 07:56:54;;;;;;;5.82;2.22;;;;;;;16.61;57.45;99138.03;4893613;28;96929;-78
2021/05/16 07:59:20;;;;;;;3.50;2.00;;;;;;;16.60;57.76;99133.69;4908996;28;98170;-79
2021/05/16 08:01:46;;;;;;;2.90;1.70;;;;;;;16.56;58.51;99138.41;4892449;28;99710;-79
2021/05/16 08:04:11;;;;;;;2.00;1.55;;;;;;;16.62;58.83;99145.03;4895051;28;96799;-77
2021/05/16 08:06:37;;;;;;;1.48;1.10;;;;;;;16.60;58.81;99142.47;4911708;28;97462;-79
2021/05/16 08:09:03;;;;;;;1.73;1.17;;;;;;;16.52;59.14;99144.88;4911962;28;99125;-79
2021/05/16 08:11:29;;;;;;;3.55;2.13;;;;;;;16.62;58.93;99145.88;4909998;28;101787;-81
2021/05/16 08:13:55;;;;;;;4.00;1.40;;;;;;;16.56;59.46;99154.28;4912195;28;96978;-80
2021/05/16 08:16:21;;;;;;;1.88;1.10;;;;;;;16.66;58.89;99154.41;4912201;28;97136;-80
2021/05/16 08:18:50;;;;;;;1.52;1.00;;;;;;;16.71;58.04;99149.63;4895790;28;100038;-80
2021/05/16 08:21:16;;;;;;;2.90;1.00;;;;;;;16.80;57.25;99156.03;4912288;28;97949;-79
2021/05/16 08:23:41;;;;;;;1.40;0.90;;;;;;;16.80;56.96;99159.53;4912017;28;97251;-80
2021/05/16 08:26:07;;;;;;;0.80;0.80;;;;;;;16.81;56.19;99171.78;4896501;28;97303;-80
2021/05/16 08:28:33;;;;;;;1.70;0.80;;;;;;;16.81;56.03;99166.50;4893148;28;101189;-80
2021/05/16 08:30:59;;;;;;;2.85;1.30;;;;;;;16.82;56.05;99170.00;4911733;28;97452;-80
2021/05/16 08:33:24;;;;;;;2.50;0.90;;;;;;;16.73;56.22;99166.25;4910975;28;97222;-79
2021/05/16 08:35:50;;;;;;;1.95;0.90;;;;;;;16.66;55.93;99167.66;4910907;28;97294;-82
2021/05/16 08:38:15;;;;;;;2.63;1.10;;;;;;;16.64;55.79;99169.56;4895775;28;98145;-80
2021/05/16 08:40:41;;;;;;;1.65;1.02;;;;;;;16.59;55.30;99174.41;4897714;28;101405;-83
2021/05/16 08:43:07;;;;;;;1.20;1.02;;;;;;;16.69;54.51;99170.91;4882759;28;97072;-83
2021/05/16 08:45:33;;;;;;;1.20;0.90;;;;;;;16.60;55.07;99173.44;4882061;28;97446;-83
2021/05/16 08:47:59;;;;;;;3.00;1.17;;;;;;;16.65;55.56;99169.47;4898389;28;98174;-82
2021/05/16 08:50:26;;;;;;;2.28;1.08;;;;;;;16.69;54.86;99172.72;4882230;28;101633;-82
2021/05/16 08:52:53;;;;;;;1.42;0.90;;;;;;;16.67;53.94;99170.22;4891963;28;96639;-82
2021/05/16 08:55:19;;;;;;;1.55;0.80;;;;;;;16.74;54.16;99173.22;4914454;28;97037;-83
2021/05/16 08:57:45;;;;;;;1.05;0.90;;;;;;;16.73;54.25;99180.31;4898572;28;97922;-86
2021/05/16 09:00:17;;;;;;;2.25;0.90;;;;;;;16.65;53.61;99185.38;4898042;28;98065;-81
2021/05/16 09:03:14;;;;;;;1.17;0.90;;;;;;;16.69;53.20;99178.03;4913707;28;96886;-76
2021/05/16 09:05:45;;;;;;;1.80;1.10;;;;;;;16.58;54.25;99189.47;4897278;28;96901;-79
2021/05/16 09:08:16;;;;;;;2.13;1.48;;;;;;;16.47;54.50;99182.34;4901179;28;100641;-80
2021/05/16 09:10:46;;;;;;;;;;;;;;;16.44;54.81;99193.16;4901569;28;102131;-77
2021/05/16 09:13:18;;;;;;;4.35;2.40;;;;;;;16.53;55.18;99196.91;4896739;28;97222;-82
2021/05/16 09:16:04;;;;;;;2.55;2.30;;;;;;;16.55;54.61;99186.19;4896647;28;96933;-78
2021/05/16 09:18:51;;;;;;;3.85;2.53;;;;;;;16.58;54.65;99193.91;4895160;28;101167;-81
2021/05/16 09:21:30;;;;;;;3.00;2.80;;;;;;;16.68;54.84;99194.88;4895069;28;97625;-79
2021/05/16 09:24:02;;;;;;;6.18;2.60;;;;;;;16.66;54.78;99196.81;4910349;28;96842;-79
2021/05/16 09:26:38;;;;;;;5.78;2.50;;;;;;;16.71;54.63;99194.66;4915093;28;97204;-81
2021/05/16 09:29:20;;;;;;;5.60;2.40;;;;;;;16.93;54.53;99197.38;4907314;28;101339;-81
2021/05/16 09:31:47;;;;;;;2.83;2.63;;;;;;;16.92;55.06;99194.81;4922666;28;101798;-80
2021/05/16 09:34:13;;;;;;;3.22;2.20;;;;;;;16.96;54.56;99198.94;4920779;28;97365;-80
2021/05/16 09:36:40;;;;;;;3.13;2.30;;;;;;;16.89;54.80;99198.56;4923031;28;97472;-84
2021/05/16 09:39:22;;;;;;;3.08;2.55;;;;;;;17.14;54.87;99200.13;4903437;28;100402;-84
2021/05/16 09:42:11;;;;;;;3.13;2.38;;;;;;;17.45;54.76;99202.16;4913628;28;98087;-82
2021/05/16 09:44:43;;;;;;;4.28;3.20;;;;;;;17.88;53.72;99196.88;4898383;28;96721;-81
2021/05/16 09:47:12;;;;;;;3.05;2.78;;;;;;;18.04;54.38;99201.78;4882242;28;97218;-81
2021/05/16 09:49:38;;;;;;;2.53;2.33;;;;;;;18.07;53.77;99201.53;4893576;28;100369;-82
2021/05/16 09:52:09;;;;;;;3.00;2.70;;;;;;;17.98;53.58;99197.84;4912945;28;98409;-81
2021/05/16 09:54:57;;;;;;;3.05;2.53;;;;;;;18.02;53.43;99206.38;4891821;28;97452;-81
2021/05/16 09:57:24;;;;;;;5.40;2.50;;;;;;;18.01;52.72;99202.06;4894293;28;97529;-81
2021/05/16 09:59:50;;;;;;;4.43;2.80;;;;;;;17.90;52.59;99207.41;4891460;28;97426;-81
2021/05/16 10:02:16;;;;;;;2.83;2.63;;;;;;;18.08;53.51;99208.53;4898386;28;98229;-81
2021/05/16 10:04:44;;;;;;;6.88;2.92;;;;;;;18.06;53.37;99211.31;4882208;28;97185;-81
2021/05/16 10:07:11;;;;;;;3.25;2.75;;;;;;;17.87;52.65;99214.63;4882135;28;97240;-82
2021/05/16 10:09:36;;;;;;;3.60;2.60;;;;;;;17.84;52.45;99214.88;4881358;28;100009;-81
2021/05/16 10:12:06;;;;;;;3.15;2.70;;;;;;;17.88;52.35;99212.81;4897591;28;100867;-82
2021/05/16 10:14:38;;;;;;;19.38;15.77;;;;;;;17.86;53.00;99206.81;4897202;28;97062;-80
2021/05/16 10:17:06;;;;;;;4.05;3.70;;;;;;;17.91;51.61;99217.88;4897440;28;97243;-82
2021/05/16 10:19:40;;;;;;;2.53;2.33;;;;;;;17.85;51.12;99213.91;4880852;28;101025;-82
2021/05/16 10:22:14;;;;;;;3.08;2.40;;;;;;;17.88;50.09;99212.81;4897734;28;98393;-82
2021/05/16 10:24:39;;;;;;;2.83;2.20;;;;;;;18.06;49.95;99213.09;4896789;28;97601;-81
2021/05/16 10:27:26;;;;;;;3.53;3.08;;;;;;;18.32;50.87;99206.50;4913869;28;97583;-83
2021/05/16 10:30:03;;;;;;;2.63;2.42;;;;;;;18.69;51.18;99207.84;4889521;28;101613;-81
2021/05/16 10:32:41;;;;;;;2.40;2.20;;;;;;;18.88;50.05;99213.31;4894674;28;101633;-80
2021/05/16 10:35:09;;;;;;;3.38;2.60;;;;;;;19.14;49.84;99205.75;4894843;28;97925;-81
2021/05/16 10:37:45;;;;;;;3.25;2.95;;;;;;;19.10;48.83;99208.78;4895129;28;97487;-81
2021/05/16 10:40:23;;;;;;;2.90;2.70;;;;;;;18.96;48.05;99199.34;4894720;28;98209;-82
2021/05/16 10:42:57;;;;;;;3.25;2.95;;;;;;;18.99;48.63;99186.66;4912285;28;101022;-81
2021/05/16 10:45:30;;;;;;;3.03;2.83;;;;;;;19.07;45.86;99190.44;4912268;28;96713;-79
2021/05/16 10:48:04;;;;;;;1.80;1.70;;;;;;;18.73;48.19;99183.56;4894718;28;97387;-80
2021/05/16 10:50:40;;;;;;;2.10;1.98;;;;;;;18.70;47.64;99173.19;4888822;28;98421;-79
2021/05/16 10:53:20;;;;;;;1.95;1.77;;;;;;;18.64;46.19;99176.34;4893550;28;98485;-82
2021/05/16 10:56:06;;;;;;;1.83;1.73;;;;;;;18.41;46.33;99170.31;4892410;28;96858;-82
2021/05/16 10:58:31;;;;;;;2.20;2.00;;;;;;;18.39;47.27;99160.81;4923748;28;96682;-81
2021/05/16 11:01:30;;;;;;;1.98;1.75;;;;;;;18.24;46.66;99162.97;4892645;28;101433;-82
2021/05/16 11:03:58;;;;;;;3.10;2.00;;;;;;;18.24;46.50;99162.97;4884076;28;98641;-83
2021/05/16 11:06:24;;;;;;;3.40;2.90;;;;;;;18.45;48.08;99166.44;4894799;28;97246;-80
2021/05/16 11:08:50;;;;;;;2.38;1.92;;;;;;;18.51;46.73;99157.13;4874010;28;98044;-82
2021/05/16 11:11:50;;;;;;;2.70;2.10;;;;;;;18.84;47.13;99171.16;4910202;28;98488;-82
2021/05/16 11:14:17;;;;;;;3.45;2.15;;;;;;;19.03;47.35;99165.09;4928249;28;98223;-88
2021/05/16 11:16:51;;;;;;;2.83;2.35;;;;;;;19.19;46.80;99158.28;4895371;28;97045;-87
2021/05/16 11:19:20;;;;;;;2.70;2.00;;;;;;;19.12;45.64;99159.81;4879999;28;97358;-87
2021/05/16 11:21:45;;;;;;;2.40;2.20;;;;;;;18.96;45.91;99159.47;4890235;28;100495;-85
2021/05/16 11:24:11;;;;;;;2.17;1.98;;;;;;;18.82;45.64;99149.19;4911956;28;98364;-87
2021/05/16 11:26:37;;;;;;;5.35;2.40;;;;;;;18.45;46.45;99144.34;4879722;28;96939;-85
2021/05/16 11:29:03;;;;;;;2.60;2.00;;;;;;;18.28;47.54;99146.63;4881224;28;96921;-86
2021/05/16 11:31:31;;;;;;;3.42;2.00;;;;;;;18.26;47.28;99143.25;4898120;28;97496;-87
2021/05/16 11:33:59;;;;;;;1.42;1.33;;;;;;;18.12;47.31;99140.06;4897750;28;97139;-85